createdAt,value
2017-02-14T00:00:07.800Z,-0.86
2017-02-14T00:00:48.306Z,-0.89
2017-02-14T00:01:28.801Z,-0.93
2017-02-14T00:02:09.408Z,-0.9
2017-02-14T00:02:49.873Z,-0.94
2017-02-14T00:03:30.402Z,-0.93
2017-02-14T00:04:10.904Z,-0.9
2017-02-14T00:04:51.424Z,-0.91
2017-02-14T00:05:31.970Z,-0.91
2017-02-14T00:06:12.391Z,-0.9
2017-02-14T00:06:52.909Z,-0.94
2017-02-14T00:07:33.408Z,-0.93
2017-02-14T00:08:13.887Z,-1.02
2017-02-14T00:08:54.374Z,-0.99
2017-02-14T00:09:34.920Z,-1.07
2017-02-14T00:10:15.396Z,-0.91
2017-02-14T00:10:56.076Z,-0.99
2017-02-14T00:11:36.512Z,-0.99
2017-02-14T00:12:16.993Z,-1.01
2017-02-14T00:12:58.499Z,-0.97
2017-02-14T00:13:38.992Z,-1.05
2017-02-14T00:14:19.575Z,-0.99
2017-02-14T00:15:00.047Z,-0.99
2017-02-14T00:15:40.526Z,-0.96
2017-02-14T00:16:21.579Z,-1.07
2017-02-14T00:17:02.086Z,-1.04
2017-02-14T00:17:42.619Z,-0.99
2017-02-14T00:18:23.097Z,-1.01
2017-02-14T00:19:03.568Z,-1.07
2017-02-14T00:19:44.105Z,-1.07
2017-02-14T00:20:24.565Z,-1.07
2017-02-14T00:21:05.097Z,-1.05
2017-02-14T00:21:45.593Z,-1.17
2017-02-14T00:22:26.078Z,-1.19
2017-02-14T00:23:06.578Z,-1.08
2017-02-14T00:23:47.136Z,-1.07
2017-02-14T00:24:27.655Z,-1.02
2017-02-14T00:25:08.124Z,-1.14
2017-02-14T00:25:48.625Z,-1.15
2017-02-14T00:26:29.163Z,-1.14
2017-02-14T00:27:09.671Z,-1.17
2017-02-14T00:27:50.215Z,-1.17
2017-02-14T00:28:30.707Z,-1.11
2017-02-14T00:29:11.273Z,-1.09
2017-02-14T00:29:51.761Z,-1.07
2017-02-14T00:30:32.251Z,-1.07
2017-02-14T00:31:12.786Z,-1.12
2017-02-14T00:31:53.260Z,-1.05
2017-02-14T00:32:33.746Z,-0.97
2017-02-14T00:33:14.251Z,-1.04
2017-02-14T00:35:27.618Z,-1.09
2017-02-14T00:36:08.246Z,-1.05
2017-02-14T00:36:48.537Z,-1.09
2017-02-14T00:37:29.108Z,-1.09
2017-02-14T00:38:09.610Z,-1.04
2017-02-14T00:38:50.772Z,-1.12
2017-02-14T00:39:31.227Z,-1.09
2017-02-14T00:40:11.648Z,-1.11
2017-02-14T00:40:52.179Z,-1.14
2017-02-14T00:41:32.598Z,-1.14
2017-02-14T00:42:13.950Z,-1.15
2017-02-14T00:42:54.367Z,-1.15
2017-02-14T00:43:35.811Z,-1.14
2017-02-14T00:44:16.346Z,-1.09
2017-02-14T00:44:56.835Z,-1.12
2017-02-14T00:45:37.322Z,-1.15
2017-02-14T00:46:17.745Z,-1.19
2017-02-14T00:46:58.251Z,-1.12
2017-02-14T00:47:38.837Z,-1.11
2017-02-14T00:48:19.302Z,-1.12
2017-02-14T00:48:59.764Z,-1.11
2017-02-14T00:49:40.257Z,-1.11
2017-02-14T00:50:20.741Z,-1.08
2017-02-14T00:51:01.243Z,-1.04
2017-02-14T00:51:41.744Z,-1.04
2017-02-14T00:52:22.279Z,-1.02
2017-02-14T00:53:02.741Z,-1.05
2017-02-14T00:53:43.237Z,-1.02
2017-02-14T00:54:24.487Z,-0.99
2017-02-14T00:55:05.014Z,-0.99
2017-02-14T00:55:45.448Z,-1.02
2017-02-14T00:56:25.931Z,-0.96
2017-02-14T00:57:06.436Z,-0.97
2017-02-14T00:57:46.855Z,-1.04
2017-02-14T00:58:27.348Z,-1.02
2017-02-14T00:59:07.866Z,-0.97
2017-02-14T00:59:48.353Z,-0.99
2017-02-14T01:00:28.831Z,-0.94
2017-02-14T01:01:09.317Z,-1.04
2017-02-14T01:01:49.884Z,-0.97
2017-02-14T01:02:30.349Z,-0.96
2017-02-14T01:03:10.881Z,-0.99
2017-02-14T01:03:51.390Z,-0.97
2017-02-14T01:04:31.852Z,-0.93
2017-02-14T01:05:12.392Z,-0.96
2017-02-14T01:05:52.893Z,-0.93
2017-02-14T01:06:33.343Z,-0.97
2017-02-14T01:07:13.887Z,-0.97
2017-02-14T01:07:54.370Z,-0.85
2017-02-14T01:08:34.859Z,-0.89
2017-02-14T01:09:15.348Z,-0.9
2017-02-14T01:09:55.885Z,-0.85
2017-02-14T01:10:36.435Z,-0.8
2017-02-14T01:11:16.923Z,-0.86
2017-02-14T01:11:57.411Z,-0.86
2017-02-14T01:12:37.939Z,-0.86
2017-02-14T01:13:18.404Z,-0.91
2017-02-14T01:13:58.894Z,-0.78
2017-02-14T01:14:39.404Z,-0.85
2017-02-14T01:15:19.892Z,-0.78
2017-02-14T01:16:00.404Z,-0.86
2017-02-14T01:16:40.896Z,-0.91
2017-02-14T01:17:21.427Z,-0.82
2017-02-14T01:18:01.903Z,-0.75
2017-02-14T01:18:42.398Z,-0.8
2017-02-14T01:19:23.490Z,-0.78
2017-02-14T01:20:03.977Z,-0.82
2017-02-14T01:20:44.497Z,-0.82
2017-02-14T01:21:24.984Z,-0.91
2017-02-14T01:22:05.490Z,-0.78
2017-02-14T01:22:46.009Z,-0.78
2017-02-14T01:23:26.491Z,-0.91
2017-02-14T01:24:06.939Z,-0.78
2017-02-14T01:24:47.492Z,-0.82
2017-02-14T01:25:28.620Z,-0.85
2017-02-14T01:26:09.172Z,-0.82
2017-02-14T01:26:50.479Z,-0.8
2017-02-14T01:27:31.021Z,-0.78
2017-02-14T01:28:12.232Z,-0.86
2017-02-14T01:28:52.710Z,-0.8
2017-02-14T01:29:33.232Z,-0.8
2017-02-14T01:30:13.707Z,-0.85
2017-02-14T01:30:54.186Z,-0.74
2017-02-14T01:31:34.760Z,-0.82
2017-02-14T01:32:16.708Z,-0.78
2017-02-14T01:32:57.232Z,-0.8
2017-02-14T01:33:37.731Z,-0.91
2017-02-14T01:34:18.257Z,-0.8
2017-02-14T01:34:58.704Z,-0.9
2017-02-14T01:35:39.178Z,-0.78
2017-02-14T01:36:19.654Z,-0.78
2017-02-14T01:37:00.139Z,-0.8
2017-02-14T01:37:40.646Z,-0.78
2017-02-14T01:38:21.225Z,-0.75
2017-02-14T01:39:01.722Z,-0.83
2017-02-14T01:39:42.224Z,-0.85
2017-02-14T01:40:22.707Z,-0.85
2017-02-14T01:41:03.203Z,-0.9
2017-02-14T01:41:43.676Z,-0.97
2017-02-14T01:42:24.209Z,-0.9
2017-02-14T01:43:04.743Z,-0.9
2017-02-14T01:43:45.196Z,-0.94
2017-02-14T01:44:25.654Z,-0.93
2017-02-14T01:45:06.235Z,-0.93
2017-02-14T01:45:47.662Z,-0.89
2017-02-14T01:46:28.148Z,-0.97
2017-02-14T01:47:08.664Z,-1.02
2017-02-14T01:47:49.173Z,-0.99
2017-02-14T01:48:29.632Z,-1.04
2017-02-14T01:49:10.136Z,-0.96
2017-02-14T01:49:51.454Z,-0.99
2017-02-14T01:50:32.426Z,-0.99
2017-02-14T01:51:12.934Z,-0.97
2017-02-14T01:51:53.972Z,-0.99
2017-02-14T01:52:34.474Z,-1.02
2017-02-14T01:53:15.916Z,-1.05
2017-02-14T01:53:56.380Z,-1.12
2017-02-14T01:54:36.865Z,-1.07
2017-02-14T01:55:17.458Z,-1.08
2017-02-14T01:55:57.885Z,-1.04
2017-02-14T01:56:38.400Z,-1.01
2017-02-14T01:57:18.827Z,-0.99
2017-02-14T01:57:59.353Z,-0.97
2017-02-14T01:58:40.492Z,-1.02
2017-02-14T01:59:21.612Z,-1.01
2017-02-14T02:00:02.110Z,-1.04
2017-02-14T02:00:42.593Z,-1.07
2017-02-14T02:01:23.098Z,-1.07
2017-02-14T02:02:03.601Z,-1.11
2017-02-14T02:02:44.989Z,-1.14
2017-02-14T02:03:25.496Z,-1.17
2017-02-14T02:04:06.881Z,-1.07
2017-02-14T02:04:47.412Z,-1.08
2017-02-14T02:05:27.886Z,-1.08
2017-02-14T02:06:08.423Z,-1.09
2017-02-14T02:06:49.670Z,-1.17
2017-02-14T02:07:30.192Z,-1.12
2017-02-14T02:08:10.682Z,-1.12
2017-02-14T02:08:51.248Z,-1.12
2017-02-14T02:09:31.785Z,-1.08
2017-02-14T02:10:13.241Z,-1.17
2017-02-14T02:10:53.766Z,-1.19
2017-02-14T02:11:34.267Z,-1.12
2017-02-14T02:12:14.771Z,-1.23
2017-02-14T02:12:56.206Z,-1.14
2017-02-14T02:13:36.726Z,-1.15
2017-02-14T02:14:17.194Z,-1.19
2017-02-14T02:14:57.691Z,-1.17
2017-02-14T02:15:38.247Z,-1.19
2017-02-14T02:16:18.664Z,-1.19
2017-02-14T02:17:00.023Z,-1.19
2017-02-14T02:17:40.502Z,-1.14
2017-02-14T02:18:21.004Z,-1.15
2017-02-14T02:19:01.482Z,-1.23
2017-02-14T02:19:41.946Z,-1.23
2017-02-14T02:20:22.436Z,-1.12
2017-02-14T02:21:02.973Z,-1.17
2017-02-14T02:21:43.486Z,-1.26
2017-02-14T02:22:24.000Z,-1.15
2017-02-14T02:23:04.454Z,-1.22
2017-02-14T02:23:45.013Z,-1.17
2017-02-14T02:24:25.430Z,-1.19
2017-02-14T02:25:06.863Z,-1.2
2017-02-14T02:25:47.327Z,-1.19
2017-02-14T02:26:27.809Z,-1.22
2017-02-14T02:27:08.393Z,-1.25
2017-02-14T02:27:48.835Z,-1.22
2017-02-14T02:28:29.391Z,-1.19
2017-02-14T02:29:09.834Z,-1.22
2017-02-14T02:29:50.327Z,-1.2
2017-02-14T02:30:30.891Z,-1.17
2017-02-14T02:31:12.299Z,-1.25
2017-02-14T02:31:52.833Z,-1.19
2017-02-14T02:32:33.307Z,-1.19
2017-02-14T02:33:13.801Z,-1.22
2017-02-14T02:33:54.357Z,-1.25
2017-02-14T02:34:35.704Z,-1.15
2017-02-14T02:35:16.257Z,-1.19
2017-02-14T02:35:56.732Z,-1.12
2017-02-14T02:36:37.256Z,-1.15
2017-02-14T02:37:18.726Z,-1.17
2017-02-14T02:37:59.903Z,-1.11
2017-02-14T02:38:41.369Z,-1.11
2017-02-14T02:39:21.829Z,-1.14
2017-02-14T02:40:02.877Z,-1.17
2017-02-14T02:40:43.363Z,-1.15
2017-02-14T02:41:23.899Z,-1.17
2017-02-14T02:42:04.595Z,-1.14
2017-02-14T02:42:45.090Z,-1.14
2017-02-14T02:43:25.539Z,-1.19
2017-02-14T02:44:06.037Z,-1.11
2017-02-14T02:44:46.548Z,-1.15
2017-02-14T02:45:27.712Z,-1.04
2017-02-14T02:46:08.199Z,-1.09
2017-02-14T02:46:48.719Z,-1.01
2017-02-14T02:47:29.197Z,-1.09
2017-02-14T02:48:10.643Z,-1.02
2017-02-14T02:48:51.144Z,-1.04
2017-02-14T02:49:32.399Z,-0.99
2017-02-14T02:51:32.859Z,-0.99
2017-02-14T02:52:13.332Z,-1.02
2017-02-14T02:52:53.877Z,-0.99
2017-02-14T02:53:37.000Z,-1.01
2017-02-14T02:54:20.427Z,-1.01
2017-02-14T02:55:02.885Z,-1.07
2017-02-14T02:55:44.929Z,-1.14
2017-02-14T02:57:22.923Z,-1.17
2017-02-14T02:58:04.161Z,-1.05
2017-02-14T02:58:44.673Z,-1.14
2017-02-14T02:59:25.174Z,-1.11
2017-02-14T03:00:06.648Z,-1.07
2017-02-14T03:00:47.146Z,-1.15
2017-02-14T03:01:28.511Z,-1.09
2017-02-14T03:02:09.010Z,-1.14
2017-02-14T03:02:49.447Z,-1.12
2017-02-14T03:03:29.965Z,-1.11
2017-02-14T03:04:10.441Z,-1.12
2017-02-14T03:04:51.466Z,-1.04
2017-02-14T03:05:31.949Z,-1.07
2017-02-14T03:06:12.467Z,-1.05
2017-02-14T03:06:52.936Z,-1.11
2017-02-14T03:07:33.453Z,-1.14
2017-02-14T03:08:13.936Z,-1.05
2017-02-14T03:08:54.455Z,-1.14
2017-02-14T03:09:34.916Z,-1.17
2017-02-14T03:10:16.211Z,-1.14
2017-02-14T03:10:57.588Z,-1.12
2017-02-14T03:11:38.046Z,-1.15
2017-02-14T03:12:18.571Z,-1.11
2017-02-14T03:12:59.845Z,-1.05
2017-02-14T03:13:41.039Z,-1.09
2017-02-14T03:14:21.564Z,-1.08
2017-02-14T03:15:02.578Z,-1.11
2017-02-14T03:15:43.676Z,-1.14
2017-02-14T03:16:24.860Z,-1.11
2017-02-14T03:17:05.369Z,-1.12
2017-02-14T03:17:45.890Z,-1.19
2017-02-14T03:18:26.416Z,-1.23
2017-02-14T03:19:06.932Z,-1.15
2017-02-14T03:19:49.050Z,-1.15
2017-02-14T03:20:30.162Z,-1.25
2017-02-14T03:21:10.713Z,-1.26
2017-02-14T03:21:51.205Z,-1.27
2017-02-14T03:22:31.667Z,-1.26
2017-02-14T03:23:12.165Z,-1.27
2017-02-14T03:23:52.607Z,-1.4
2017-02-14T03:24:33.094Z,-1.37
2017-02-14T03:25:14.596Z,-1.4
2017-02-14T03:25:55.020Z,-1.4
2017-02-14T03:26:35.573Z,-1.41
2017-02-14T03:27:16.025Z,-1.4
2017-02-14T03:27:56.519Z,-1.32
2017-02-14T03:28:37.638Z,-1.38
2017-02-14T03:29:18.145Z,-1.38
2017-02-14T03:29:58.647Z,-1.32
2017-02-14T03:30:39.824Z,-1.4
2017-02-14T03:31:20.365Z,-1.37
2017-02-14T03:32:01.847Z,-1.4
2017-02-14T03:32:42.345Z,-1.3
2017-02-14T03:33:22.838Z,-1.27
2017-02-14T03:34:03.336Z,-1.38
2017-02-14T03:34:43.803Z,-1.35
2017-02-14T03:35:24.335Z,-1.3
2017-02-14T03:36:05.759Z,-1.29
2017-02-14T03:36:46.300Z,-1.26
2017-02-14T03:37:26.793Z,-1.27
2017-02-14T03:38:07.274Z,-1.23
2017-02-14T03:38:48.341Z,-1.23
2017-02-14T03:39:28.742Z,-1.14
2017-02-14T03:40:09.304Z,-1.19
2017-02-14T03:40:49.721Z,-1.14
2017-02-14T03:41:30.183Z,-1.17
2017-02-14T03:42:10.677Z,-1.15
2017-02-14T03:42:51.187Z,-1.12
2017-02-14T03:43:31.692Z,-1.09
2017-02-14T03:44:12.168Z,-1.12
2017-02-14T03:44:52.673Z,-1.19
2017-02-14T03:45:33.140Z,-1.19
2017-02-14T03:46:14.330Z,-1.19
2017-02-14T03:46:55.799Z,-1.17
2017-02-14T03:47:36.267Z,-1.19
2017-02-14T03:48:16.764Z,-1.2
2017-02-14T03:48:57.242Z,-1.23
2017-02-14T03:49:39.172Z,-1.23
2017-02-14T03:50:19.744Z,-1.22
2017-02-14T03:51:00.992Z,-1.22
2017-02-14T03:51:41.508Z,-1.26
2017-02-14T03:52:21.996Z,-1.26
2017-02-14T03:53:02.495Z,-1.29
2017-02-14T03:53:43.007Z,-1.3
2017-02-14T03:54:23.510Z,-1.32
2017-02-14T03:55:04.005Z,-1.29
2017-02-14T03:55:45.128Z,-1.26
2017-02-14T03:56:25.709Z,-1.3
2017-02-14T03:57:06.938Z,-1.26
2017-02-14T03:57:48.150Z,-1.29
2017-02-14T03:58:28.634Z,-1.19
2017-02-14T03:59:09.110Z,-1.25
2017-02-14T03:59:49.580Z,-1.2
2017-02-14T04:00:30.063Z,-1.26
2017-02-14T04:01:11.140Z,-1.23
2017-02-14T04:01:52.260Z,-1.25
2017-02-14T04:02:33.546Z,-1.23
2017-02-14T04:03:14.039Z,-1.17
2017-02-14T04:03:55.336Z,-1.25
2017-02-14T04:04:36.332Z,-1.17
2017-02-14T04:05:16.829Z,-1.27
2017-02-14T04:05:57.304Z,-1.17
2017-02-14T04:06:37.791Z,-1.19
2017-02-14T04:07:18.830Z,-1.19
2017-02-14T04:08:00.042Z,-1.15
2017-02-14T04:08:40.535Z,-1.14
2017-02-14T04:09:21.034Z,-1.17
2017-02-14T04:10:01.586Z,-1.17
2017-02-14T04:10:42.027Z,-1.2
2017-02-14T04:11:22.562Z,-1.22
2017-02-14T04:12:03.117Z,-1.3
2017-02-14T04:12:43.593Z,-1.2
2017-02-14T04:13:25.053Z,-1.26
2017-02-14T04:14:05.550Z,-1.23
2017-02-14T04:14:46.099Z,-1.22
2017-02-14T04:15:26.559Z,-1.29
2017-02-14T04:16:07.073Z,-1.35
2017-02-14T04:16:47.496Z,-1.22
2017-02-14T04:17:27.997Z,-1.35
2017-02-14T04:18:10.358Z,-1.29
2017-02-14T04:18:51.809Z,-1.27
2017-02-14T04:19:32.332Z,-1.27
2017-02-14T04:20:13.709Z,-1.38
2017-02-14T04:20:55.064Z,-1.32
2017-02-14T04:21:36.246Z,-1.29
2017-02-14T04:22:16.807Z,-1.32
2017-02-14T04:22:57.277Z,-1.27
2017-02-14T04:23:37.843Z,-1.3
2017-02-14T04:24:19.136Z,-1.37
2017-02-14T04:24:59.678Z,-1.33
2017-02-14T04:25:40.183Z,-1.32
2017-02-14T04:26:21.207Z,-1.27
2017-02-14T04:27:02.724Z,-1.3
2017-02-14T04:27:43.231Z,-1.19
2017-02-14T04:28:23.774Z,-1.17
2017-02-14T04:29:04.253Z,-1.25
2017-02-14T04:29:44.796Z,-1.19
2017-02-14T04:30:26.212Z,-1.2
2017-02-14T04:31:06.726Z,-1.2
2017-02-14T04:31:47.252Z,-1.2
2017-02-14T04:32:28.285Z,-1.22
2017-02-14T04:33:08.731Z,-1.14
2017-02-14T04:33:49.256Z,-1.12
2017-02-14T04:34:29.790Z,-1.15
2017-02-14T04:35:10.259Z,-1.15
2017-02-14T04:35:51.540Z,-1.14
2017-02-14T04:36:32.027Z,-1.19
2017-02-14T04:37:12.506Z,-1.22
2017-02-14T04:37:53.027Z,-1.26
2017-02-14T04:38:33.515Z,-1.26
2017-02-14T04:39:14.001Z,-1.3
2017-02-14T04:39:54.497Z,-1.26
2017-02-14T04:40:35.006Z,-1.32
2017-02-14T04:41:15.508Z,-1.26
2017-02-14T04:41:56.075Z,-1.29
2017-02-14T04:42:36.473Z,-1.26
2017-02-14T04:43:16.964Z,-1.3
2017-02-14T04:43:57.453Z,-1.25
2017-02-14T04:44:37.951Z,-1.22
2017-02-14T04:45:18.465Z,-1.26
2017-02-14T04:45:58.948Z,-1.25
2017-02-14T04:46:39.418Z,-1.25
2017-02-14T04:47:21.748Z,-1.29
2017-02-14T04:48:02.223Z,-1.23
2017-02-14T04:48:42.737Z,-1.33
2017-02-14T04:49:23.211Z,-1.29
2017-02-14T04:50:03.724Z,-1.23
2017-02-14T04:50:44.352Z,-1.2
2017-02-14T04:51:24.767Z,-1.33
2017-02-14T04:52:05.283Z,-1.29
2017-02-14T04:52:45.777Z,-1.25
2017-02-14T04:53:26.243Z,-1.27
2017-02-14T04:54:06.713Z,-1.33
2017-02-14T04:54:47.208Z,-1.3
2017-02-14T04:55:27.704Z,-1.25
2017-02-14T04:56:08.224Z,-1.22
2017-02-14T04:56:48.674Z,-1.38
2017-02-14T04:57:29.203Z,-1.33
2017-02-14T04:58:10.476Z,-1.3
2017-02-14T04:58:51.048Z,-1.29
2017-02-14T04:59:31.490Z,-1.32
2017-02-14T05:00:11.955Z,-1.38
2017-02-14T05:02:00.035Z,-1.26
2017-02-14T05:02:40.425Z,-1.38
2017-02-14T05:03:20.971Z,-1.38
2017-02-14T05:04:01.449Z,-1.35
2017-02-14T05:04:41.913Z,-1.26
2017-02-14T05:05:22.909Z,-1.26
2017-02-14T05:06:03.417Z,-1.33
2017-02-14T05:06:43.931Z,-1.35
2017-02-14T05:07:26.005Z,-1.53
2017-02-14T05:08:07.197Z,-1.51
2017-02-14T05:08:48.612Z,-1.38
2017-02-14T05:09:29.101Z,-1.5
2017-02-14T05:10:09.780Z,-1.43
2017-02-14T05:10:50.284Z,-1.56
2017-02-14T05:11:30.752Z,-1.54
2017-02-14T05:12:11.263Z,-1.54
2017-02-14T05:12:51.775Z,-1.54
2017-02-14T05:13:34.896Z,-1.58
2017-02-14T05:14:15.435Z,-1.5
2017-02-14T05:14:55.967Z,-1.54
2017-02-14T05:15:36.406Z,-1.51
2017-02-14T05:16:16.921Z,-1.53
2017-02-14T05:16:57.397Z,-1.56
2017-02-14T05:17:37.866Z,-1.56
2017-02-14T05:18:18.364Z,-1.53
2017-02-14T05:18:58.888Z,-1.58
2017-02-14T05:19:39.329Z,-1.53
2017-02-14T05:20:19.932Z,-1.5
2017-02-14T05:21:00.425Z,-1.53
2017-02-14T05:21:40.907Z,-1.59
2017-02-14T05:22:21.393Z,-1.54
2017-02-14T05:23:01.901Z,-1.51
2017-02-14T05:23:42.416Z,-1.5
2017-02-14T05:24:22.939Z,-1.58
2017-02-14T05:25:03.425Z,-1.53
2017-02-14T05:25:43.934Z,-1.53
2017-02-14T05:26:24.420Z,-1.59
2017-02-14T05:27:05.048Z,-1.53
2017-02-14T05:27:45.502Z,-1.53
2017-02-14T05:28:26.034Z,-1.51
2017-02-14T05:29:06.598Z,-1.53
2017-02-14T05:29:47.058Z,-1.53
2017-02-14T05:30:27.612Z,-1.51
2017-02-14T05:31:08.054Z,-1.48
2017-02-14T05:31:48.665Z,-1.44
2017-02-14T05:32:29.187Z,-1.53
2017-02-14T05:33:09.603Z,-1.35
2017-02-14T05:33:50.122Z,-1.46
2017-02-14T05:34:30.623Z,-1.5
2017-02-14T05:35:11.155Z,-1.53
2017-02-14T05:35:51.650Z,-1.4
2017-02-14T05:36:32.147Z,-1.5
2017-02-14T05:37:12.630Z,-1.48
2017-02-14T05:37:53.148Z,-1.53
2017-02-14T05:38:35.127Z,-1.56
2017-02-14T05:39:15.604Z,-1.54
2017-02-14T05:39:56.029Z,-1.48
2017-02-14T05:40:36.585Z,-1.53
2017-02-14T05:41:17.060Z,-1.48
2017-02-14T05:41:57.565Z,-1.48
2017-02-14T05:42:38.109Z,-1.5
2017-02-14T05:43:18.530Z,-1.54
2017-02-14T05:43:59.010Z,-1.48
2017-02-14T05:44:39.522Z,-1.61
2017-02-14T05:45:20.024Z,-1.58
2017-02-14T05:46:00.539Z,-1.54
2017-02-14T05:46:40.986Z,-1.62
2017-02-14T05:47:21.508Z,-1.53
2017-02-14T05:48:02.030Z,-1.53
2017-02-14T05:48:42.474Z,-1.51
2017-02-14T05:49:22.992Z,-1.53
2017-02-14T05:50:03.494Z,-1.51
2017-02-14T05:50:43.995Z,-1.56
2017-02-14T05:51:24.490Z,-1.53
2017-02-14T05:52:04.985Z,-1.54
2017-02-14T05:52:45.516Z,-1.48
2017-02-14T05:53:25.954Z,-1.5
2017-02-14T05:54:06.510Z,-1.5
2017-02-14T05:54:47.004Z,-1.48
2017-02-14T05:55:27.465Z,-1.53
2017-02-14T05:56:07.987Z,-1.4
2017-02-14T05:56:48.497Z,-1.46
2017-02-14T05:57:28.998Z,-1.56
2017-02-14T05:58:09.485Z,-1.44
2017-02-14T05:58:49.995Z,-1.54
2017-02-14T05:59:30.514Z,-1.56
2017-02-14T06:00:10.989Z,-1.46
2017-02-14T06:00:51.516Z,-1.48
2017-02-14T06:01:32.012Z,-1.48
2017-02-14T06:02:12.484Z,-1.47
2017-02-14T06:02:53.375Z,-1.56
2017-02-14T06:03:33.823Z,-1.51
2017-02-14T06:04:14.380Z,-1.56
2017-02-14T06:04:54.948Z,-1.56
2017-02-14T06:05:35.331Z,-1.54
2017-02-14T06:06:15.825Z,-1.65
2017-02-14T06:06:56.481Z,-1.53
2017-02-14T06:07:36.990Z,-1.64
2017-02-14T06:08:17.514Z,-1.56
2017-02-14T06:08:58.356Z,-1.54
2017-02-14T06:09:38.822Z,-1.61
2017-02-14T06:10:19.305Z,-1.58
2017-02-14T06:10:59.820Z,-1.58
2017-02-14T06:11:40.355Z,-1.5
2017-02-14T06:12:20.975Z,-1.56
2017-02-14T06:13:01.431Z,-1.59
2017-02-14T06:13:41.892Z,-1.5
2017-02-14T06:14:22.374Z,-1.46
2017-02-14T06:15:02.917Z,-1.46
2017-02-14T06:15:43.365Z,-1.43
2017-02-14T06:16:23.862Z,-1.46
2017-02-14T06:17:04.376Z,-1.5
2017-02-14T06:17:44.855Z,-1.47
2017-02-14T06:18:25.410Z,-1.38
2017-02-14T06:19:05.847Z,-1.4
2017-02-14T06:19:46.430Z,-1.4
2017-02-14T06:20:26.920Z,-1.37
2017-02-14T06:21:07.386Z,-1.37
2017-02-14T06:21:47.875Z,-1.33
2017-02-14T06:22:28.340Z,-1.37
2017-02-14T06:23:08.839Z,-1.38
2017-02-14T06:23:49.313Z,-1.32
2017-02-14T06:24:29.805Z,-1.35
2017-02-14T06:25:10.316Z,-1.4
2017-02-14T06:25:50.791Z,-1.35
2017-02-14T06:26:31.467Z,-1.35
2017-02-14T06:27:11.873Z,-1.33
2017-02-14T06:27:52.438Z,-1.41
2017-02-14T06:28:32.898Z,-1.48
2017-02-14T06:29:13.352Z,-1.4
2017-02-14T06:29:53.868Z,-1.47
2017-02-14T06:30:34.333Z,-1.44
2017-02-14T06:31:14.843Z,-1.37
2017-02-14T06:31:55.349Z,-1.44
2017-02-14T06:32:35.861Z,-1.37
2017-02-14T06:33:16.472Z,-1.4
2017-02-14T06:33:56.812Z,-1.4
2017-02-14T06:34:37.324Z,-1.32
2017-02-14T06:35:17.805Z,-1.38
2017-02-14T06:35:58.267Z,-1.35
2017-02-14T06:36:38.793Z,-1.35
2017-02-14T06:37:19.268Z,-1.32
2017-02-14T06:37:59.713Z,-1.43
2017-02-14T06:38:40.253Z,-1.38
2017-02-14T06:39:20.734Z,-1.29
2017-02-14T06:40:01.195Z,-1.38
2017-02-14T06:40:41.754Z,-1.41
2017-02-14T06:41:22.264Z,-1.27
2017-02-14T06:42:02.782Z,-1.29
2017-02-14T06:42:43.226Z,-1.35
2017-02-14T06:43:23.722Z,-1.32
2017-02-14T06:44:04.265Z,-1.3
2017-02-14T06:44:45.611Z,-1.38
2017-02-14T06:45:26.165Z,-1.35
2017-02-14T06:46:06.618Z,-1.41
2017-02-14T06:46:47.080Z,-1.33
2017-02-14T06:47:27.552Z,-1.35
2017-02-14T06:48:08.093Z,-1.35
2017-02-14T06:48:48.536Z,-1.37
2017-02-14T06:49:29.144Z,-1.41
2017-02-14T06:50:09.621Z,-1.35
2017-02-14T06:50:50.034Z,-1.4
2017-02-14T06:51:30.994Z,-1.38
2017-02-14T06:52:12.079Z,-1.41
2017-02-14T06:52:52.641Z,-1.4
2017-02-14T06:53:33.185Z,-1.32
2017-02-14T06:54:14.049Z,-1.37
2017-02-14T06:56:15.722Z,-1.43
2017-02-14T06:57:02.046Z,-1.38
2017-02-14T06:57:51.053Z,-1.4
2017-02-14T06:58:40.585Z,-1.37
2017-02-14T06:59:29.383Z,-1.35
2017-02-14T07:00:21.128Z,-1.37
2017-02-14T07:01:09.486Z,-1.33
2017-02-14T07:01:58.268Z,-1.33
2017-02-14T07:02:47.646Z,-1.35
2017-02-14T07:03:35.603Z,-1.38
2017-02-14T07:04:24.447Z,-1.35
2017-02-14T07:05:13.603Z,-1.41
2017-02-14T07:06:02.275Z,-1.46
2017-02-14T07:06:51.305Z,-1.48
2017-02-14T07:07:41.812Z,-1.4
2017-02-14T07:08:32.611Z,-1.44
2017-02-14T07:09:22.024Z,-1.51
2017-02-14T07:10:13.925Z,-1.54
2017-02-14T07:11:04.374Z,-1.43
2017-02-14T07:11:53.021Z,-1.5
2017-02-14T07:12:32.630Z,-1.48
2017-02-14T07:13:13.111Z,-1.48
2017-02-14T07:13:53.601Z,-1.43
2017-02-14T07:14:34.248Z,-1.48
2017-02-14T07:15:14.595Z,-1.58
2017-02-14T07:15:55.146Z,-1.5
2017-02-14T07:16:35.789Z,-1.53
2017-02-14T07:17:16.170Z,-1.5
2017-02-14T07:17:56.816Z,-1.58
2017-02-14T07:18:37.220Z,-1.5
2017-02-14T07:19:18.593Z,-1.53
2017-02-14T07:19:58.911Z,-1.56
2017-02-14T07:20:39.500Z,-1.56
2017-02-14T07:21:19.965Z,-1.48
2017-02-14T07:22:00.502Z,-1.54
2017-02-14T07:22:40.982Z,-1.47
2017-02-14T07:23:21.496Z,-1.47
2017-02-14T07:24:01.979Z,-1.53
2017-02-14T07:24:42.623Z,-1.44
2017-02-14T07:25:23.039Z,-1.43
2017-02-14T07:26:03.561Z,-1.5
2017-02-14T07:26:44.050Z,-1.51
2017-02-14T07:27:24.522Z,-1.54
2017-02-14T07:28:05.019Z,-1.47
2017-02-14T07:28:45.468Z,-1.46
2017-02-14T07:29:25.954Z,-1.5
2017-02-14T07:30:06.595Z,-1.48
2017-02-14T07:30:47.171Z,-1.48
2017-02-14T07:31:27.688Z,-1.47
2017-02-14T07:32:08.145Z,-1.53
2017-02-14T07:32:48.663Z,-1.47
2017-02-14T07:33:36.195Z,-1.44
2017-02-14T07:34:20.618Z,-1.38
2017-02-14T07:35:01.130Z,-1.38
2017-02-14T07:35:41.660Z,-1.51
2017-02-14T07:36:22.111Z,-1.48
2017-02-14T07:37:02.670Z,-1.37
2017-02-14T07:37:43.147Z,-1.38
2017-02-14T07:38:23.713Z,-1.41
2017-02-14T07:39:04.140Z,-1.35
2017-02-14T07:39:44.655Z,-1.4
2017-02-14T07:40:25.304Z,-1.35
2017-02-14T07:41:05.764Z,-1.35
2017-02-14T07:41:46.215Z,-1.26
2017-02-14T07:42:26.714Z,-1.3
2017-02-14T07:43:07.151Z,-1.27
2017-02-14T07:43:47.711Z,-1.19
2017-02-14T07:44:28.139Z,-1.22
2017-02-14T07:45:08.694Z,-1.2
2017-02-14T07:45:53.640Z,-1.15
2017-02-14T07:46:34.721Z,-1.19
2017-02-14T07:47:15.306Z,-1.19
2017-02-14T07:47:55.739Z,-1.14
2017-02-14T07:48:37.343Z,-1.17
2017-02-14T07:49:18.235Z,-1.15
2017-02-14T07:49:58.766Z,-1.17
2017-02-14T07:50:39.275Z,-1.17
2017-02-14T07:51:19.939Z,-1.17
2017-02-14T07:52:00.364Z,-1.25
2017-02-14T07:52:40.952Z,-1.2
2017-02-14T07:53:21.461Z,-1.19
2017-02-14T07:54:01.929Z,-1.19
2017-02-14T07:54:42.469Z,-1.15
2017-02-14T07:55:22.904Z,-1.2
2017-02-14T07:56:04.114Z,-1.2
2017-02-14T07:56:44.784Z,-1.19
2017-02-14T07:57:25.764Z,-1.12
2017-02-14T07:58:06.230Z,-1.15
2017-02-14T07:58:46.727Z,-1.27
2017-02-14T07:59:27.315Z,-1.22
2017-02-14T08:00:07.722Z,-1.29
2017-02-14T08:00:48.229Z,-1.19
2017-02-14T08:01:28.721Z,-1.22
2017-02-14T08:02:09.407Z,-1.2
2017-02-14T08:02:49.869Z,-1.14
2017-02-14T08:03:30.553Z,-1.22
2017-02-14T08:04:11.027Z,-1.2
2017-02-14T08:04:51.652Z,-1.23
2017-02-14T08:05:32.043Z,-1.29
2017-02-14T08:06:12.581Z,-1.17
2017-02-14T08:06:52.994Z,-1.2
2017-02-14T08:07:33.554Z,-1.23
2017-02-14T08:08:14.019Z,-1.26
2017-02-14T08:08:54.777Z,-1.15
2017-02-14T08:09:35.382Z,-1.2
2017-02-14T08:10:15.935Z,-1.12
2017-02-14T08:10:56.402Z,-1.11
2017-02-14T08:11:36.876Z,-1.08
2017-02-14T08:12:18.482Z,-1.12
2017-02-14T08:13:00.575Z,-1.04
2017-02-14T08:13:41.283Z,-1.04
2017-02-14T08:14:21.943Z,-0.89
2017-02-14T08:15:02.475Z,-0.93
2017-02-14T08:15:43.063Z,-0.89
2017-02-14T08:16:23.500Z,-0.91
2017-02-14T08:17:06.562Z,-0.89
2017-02-14T08:17:51.700Z,-0.78
2017-02-14T08:18:35.973Z,-0.78
2017-02-14T08:19:16.342Z,-0.65
2017-02-14T08:19:57.803Z,-0.75
2017-02-14T08:20:38.192Z,-0.72
2017-02-14T08:21:18.733Z,-0.72
2017-02-14T08:21:59.332Z,-0.8
2017-02-14T08:22:39.921Z,-0.7
2017-02-14T08:23:21.053Z,-0.7
2017-02-14T08:24:01.634Z,-0.67
2017-02-14T08:24:44.760Z,-0.77
2017-02-14T08:25:25.757Z,-0.7
2017-02-14T08:26:05.856Z,-0.64
2017-02-14T08:26:47.091Z,-0.64
2017-02-14T08:27:28.253Z,-0.62
2017-02-14T08:28:08.929Z,-0.59
2017-02-14T08:28:49.481Z,-0.65
2017-02-14T08:29:29.948Z,-0.65
2017-02-14T08:30:11.296Z,-0.62
2017-02-14T08:30:51.812Z,-0.61
2017-02-14T08:31:32.397Z,-0.62
2017-02-14T08:32:15.034Z,-0.56
2017-02-14T08:32:55.622Z,-0.56
2017-02-14T08:33:36.152Z,-0.56
2017-02-14T08:34:16.846Z,-0.44
2017-02-14T08:34:57.700Z,-0.44
2017-02-14T08:35:39.834Z,-0.5
2017-02-14T08:36:21.474Z,-0.47
2017-02-14T08:37:02.098Z,-0.47
2017-02-14T08:37:42.681Z,-0.44
2017-02-14T08:38:23.100Z,-0.36
2017-02-14T08:39:03.780Z,-0.43
2017-02-14T08:39:44.167Z,-0.32
2017-02-14T08:40:24.588Z,-0.29
2017-02-14T08:41:05.124Z,-0.41
2017-02-14T08:41:45.640Z,-0.35
2017-02-14T08:42:26.078Z,-0.43
2017-02-14T08:43:06.685Z,-0.39
2017-02-14T08:43:47.050Z,-0.23
2017-02-14T08:44:27.846Z,-0.31
2017-02-14T08:45:08.273Z,-0.34
2017-02-14T08:45:48.744Z,-0.32
2017-02-14T08:46:29.301Z,-0.32
2017-02-14T08:47:09.922Z,-0.35
2017-02-14T08:47:50.523Z,-0.35
2017-02-14T08:48:31.043Z,-0.32
2017-02-14T08:49:11.549Z,-0.32
2017-02-14T08:49:52.131Z,-0.36
2017-02-14T08:50:32.616Z,-0.29
2017-02-14T08:51:13.118Z,-0.43
2017-02-14T08:51:53.715Z,-0.39
2017-02-14T08:52:34.499Z,-0.31
2017-02-14T08:53:16.057Z,-0.39
2017-02-14T08:53:56.533Z,-0.31
2017-02-14T08:54:37.257Z,-0.28